Time;durP1;ratioP1;P1;durP2;ratioP2;P2;SDS_P1;SDS_P2;PMS_P1;PMS_P2;Temp;Humidity;BMP_temperature;BMP_pressure;BME280_temperature;BME280_humidity;BME280_pressure;Samples;Min_cycle;Max_cycle;Signal;HPM_P1;HPM_P2
2023/12/01 00:02:25;;;;;;;19.98;13.13;;;14.60;64.00;;;;;;4204985;28;20051;-53
2023/12/01 00:05:07;;;;;;;18.70;13.05;;;14.50;61.90;;;;;;4192797;28;20538;-52
2023/12/01 00:07:48;;;;;;;20.83;13.93;;;14.50;60.20;;;;;;4189348;28;20060;-51
2023/12/01 00:10:29;;;;;;;17.00;12.38;;;14.40;61.10;;;;;;4188822;28;20059;-49
2023/12/01 00:13:12;;;;;;;16.50;12.35;;;14.30;63.50;;;;;;4189816;28;20055;-50
2023/12/01 00:15:53;;;;;;;20.67;13.55;;;14.40;64.60;;;;;;4173462;28;20056;-52
2023/12/01 00:18:33;;;;;;;18.85;13.50;;;14.50;64.50;;;;;;4167335;28;20516;-53
2023/12/01 00:21:14;;;;;;;21.42;13.38;;;14.60;64.10;;;;;;4184262;28;20187;-53
2023/12/01 00:23:56;;;;;;;20.85;14.07;;;14.70;63.30;;;;;;4174777;28;20106;-54
2023/12/01 00:26:37;;;;;;;19.80;14.63;;;14.80;63.10;;;;;;4189365;28;20050;-52
2023/12/01 00:29:19;;;;;;;21.02;14.23;;;14.80;63.90;;;;;;4184853;28;20172;-52
2023/12/01 00:32:01;;;;;;;21.65;15.93;;;14.90;64.00;;;;;;4187753;28;20079;-54
2023/12/01 00:34:42;;;;;;;22.57;13.77;;;15.00;62.80;;;;;;4188115;28;20051;-53
2023/12/01 00:37:22;;;;;;;22.40;13.90;;;15.00;60.30;;;;;;4189296;28;20304;-52
2023/12/01 00:40:06;;;;;;;21.38;13.68;;;14.90;61.00;;;;;;4183802;28;20154;-53
2023/12/01 00:42:47;;;;;;;24.52;14.50;;;14.90;62.30;;;;;;4182456;28;20055;-51
2023/12/01 00:45:29;;;;;;;25.98;15.15;;;14.80;62.80;;;;;;4201605;28;20055;-52
2023/12/01 00:48:10;;;;;;;27.58;15.38;;;14.70;63.30;;;;;;4204744;28;20062;-50
2023/12/01 00:50:51;;;;;;;27.60;15.60;;;14.70;64.20;;;;;;4201168;28;20174;-50
2023/12/01 00:53:32;;;;;;;23.95;15.15;;;14.70;64.40;;;;;;4188374;28;20053;-51
2023/12/01 00:56:13;;;;;;;25.98;15.68;;;14.80;65.50;;;;;;4165379;28;20064;-48
2023/12/01 00:58:54;;;;;;;25.85;16.00;;;14.90;64.60;;;;;;4167329;28;20052;-49
2023/12/01 01:01:36;;;;;;;27.52;16.30;;;15.00;64.70;;;;;;4172308;28;20052;-48
2023/12/01 01:04:17;;;;;;;26.48;15.82;;;15.10;63.90;;;;;;4178738;28;20051;-51
2023/12/01 01:06:58;;;;;;;28.65;17.23;;;15.20;63.40;;;;;;4204694;28;20106;-49
2023/12/01 01:09:39;;;;;;;27.10;16.33;;;15.20;62.50;;;;;;4186543;28;20404;-49
2023/12/01 01:12:20;;;;;;;27.70;17.15;;;15.30;62.80;;;;;;4184662;28;20055;-51
2023/12/01 01:15:03;;;;;;;;;;;15.40;62.10;;;;;;4187543;28;20463;-48
2023/12/01 01:17:46;;;;;;;30.67;17.73;;;15.50;62.00;;;;;;4188491;28;20062;-49
2023/12/01 01:20:27;;;;;;;26.52;16.35;;;15.50;61.70;;;;;;4188010;28;20056;-51
2023/12/01 01:23:07;;;;;;;28.25;16.95;;;15.50;62.40;;;;;;4188651;28;20058;-51
2023/12/01 01:25:49;;;;;;;31.00;18.35;;;15.50;62.50;;;;;;4192371;28;20052;-52
2023/12/01 01:28:29;;;;;;;29.48;17.75;;;15.50;62.50;;;;;;4177520;28;20068;-51
2023/12/01 01:31:10;;;;;;;28.88;16.90;;;15.60;62.50;;;;;;4173345;28;20392;-54
2023/12/01 01:33:53;;;;;;;30.77;16.52;;;15.60;63.60;;;;;;4186893;28;20514;-51
2023/12/01 01:36:34;;;;;;;28.50;16.98;;;15.60;62.50;;;;;;4170849;28;20052;-49
2023/12/01 01:39:15;;;;;;;29.27;17.23;;;15.60;62.40;;;;;;4165207;28;20049;-52
2023/12/01 01:41:57;;;;;;;29.33;17.13;;;15.60;61.40;;;;;;4175537;28;20052;-53
2023/12/01 01:44:38;;;;;;;28.35;16.65;;;15.60;60.60;;;;;;4178547;28;20059;-49
2023/12/01 01:47:19;;;;;;;28.35;17.13;;;15.50;60.80;;;;;;4188055;28;20052;-50
2023/12/01 01:50:02;;;;;;;30.60;17.70;;;15.40;61.50;;;;;;4187675;28;20388;-49
2023/12/01 01:52:44;;;;;;;30.10;18.17;;;15.30;62.00;;;;;;4187218;28;20125;-53
2023/12/01 01:55:25;;;;;;;31.35;18.98;;;15.30;62.80;;;;;;4180571;28;20097;-49
2023/12/01 01:58:07;;;;;;;26.45;17.17;;;15.20;61.50;;;;;;4189297;28;20541;-50
2023/12/01 02:00:50;;;;;;;;;;;15.20;61.70;;;;;;4186985;28;20059;-49
2023/12/01 02:03:31;;;;;;;25.52;14.98;;;15.20;62.60;;;;;;4180839;28;19966;-50
2023/12/01 02:06:13;;;;;;;27.52;16.13;;;15.20;62.90;;;;;;4170350;28;20149;-49
2023/12/01 02:08:54;;;;;;;25.35;15.15;;;15.20;63.40;;;;;;4171649;28;20511;-49
2023/12/01 02:11:37;;;;;;;23.95;15.07;;;15.20;61.60;;;;;;4156642;28;20059;-53
2023/12/01 02:14:18;;;;;;;21.50;14.52;;;15.20;61.30;;;;;;4171583;28;20056;-50
2023/12/01 02:16:59;;;;;;;19.65;12.77;;;15.10;61.60;;;;;;4186525;28;20058;-50
2023/12/01 02:19:40;;;;;;;21.15;12.80;;;15.00;60.10;;;;;;4187154;28;20417;-51
2023/12/01 02:22:22;;;;;;;20.60;12.32;;;15.00;60.60;;;;;;4184669;28;20083;-48
2023/12/01 02:25:03;;;;;;;17.10;11.65;;;15.00;60.80;;;;;;4186729;28;20051;-53
2023/12/01 02:27:44;;;;;;;16.77;11.13;;;15.10;61.50;;;;;;4185680;28;20056;-50
2023/12/01 02:30:25;;;;;;;16.20;11.02;;;15.10;62.50;;;;;;4170664;28;20062;-50
2023/12/01 02:33:06;;;;;;;18.50;11.63;;;15.20;62.30;;;;;;4187301;28;20787;-49
2023/12/01 02:35:47;;;;;;;16.55;11.35;;;15.20;62.60;;;;;;4181452;28;20141;-52
2023/12/01 02:38:30;;;;;;;16.17;11.05;;;15.30;62.40;;;;;;4176262;28;20145;-52
2023/12/01 02:41:12;;;;;;;18.42;11.50;;;15.30;63.10;;;;;;4178249;28;20599;-52
2023/12/01 02:43:54;;;;;;;18.23;11.48;;;15.30;62.40;;;;;;4180183;28;20058;-50
2023/12/01 02:46:35;;;;;;;17.27;11.43;;;15.20;62.80;;;;;;4171389;28;20151;-51
2023/12/01 02:49:16;;;;;;;15.32;10.52;;;15.20;62.70;;;;;;4186947;28;20055;-48
2023/12/01 02:51:57;;;;;;;16.23;11.15;;;15.10;63.50;;;;;;4171342;28;20062;-53
2023/12/01 02:54:39;;;;;;;15.30;9.98;;;15.00;63.40;;;;;;4171471;28;20055;-51
2023/12/01 02:57:20;;;;;;;14.90;10.40;;;14.90;63.80;;;;;;4186643;28;20506;-51
2023/12/01 03:00:01;;;;;;;15.25;10.13;;;14.80;64.80;;;;;;4186784;28;20066;-47
2023/12/01 03:02:44;;;;;;;14.65;10.27;;;14.80;64.90;;;;;;4186426;28;20055;-48
2023/12/01 03:05:25;;;;;;;;;;;14.90;64.30;;;;;;4190159;28;20450;-48
2023/12/01 03:08:06;;;;;;;17.77;11.18;;;15.00;63.90;;;;;;4203217;28;19935;-47
2023/12/01 03:10:49;;;;;;;13.70;9.98;;;15.10;64.00;;;;;;4203534;28;20136;-47
2023/12/01 03:13:30;;;;;;;16.35;10.85;;;15.20;63.50;;;;;;4203170;28;20047;-47
2023/12/01 03:16:11;;;;;;;15.82;10.73;;;15.30;63.20;;;;;;4206986;28;20616;-48
2023/12/01 03:18:53;;;;;;;14.05;10.25;;;15.40;62.60;;;;;;4205686;28;20584;-49
2023/12/01 03:21:34;;;;;;;15.40;10.35;;;15.50;62.20;;;;;;4160814;28;20147;-52
2023/12/01 03:24:15;;;;;;;13.63;10.35;;;15.60;62.90;;;;;;4187832;28;20109;-48
2023/12/01 03:26:57;;;;;;;15.20;10.15;;;15.60;61.80;;;;;;4158565;28;20060;-49
2023/12/01 03:29:39;;;;;;;14.35;9.88;;;15.70;61.60;;;;;;4158804;28;20056;-50
2023/12/01 03:32:20;;;;;;;13.82;9.15;;;15.70;61.00;;;;;;4173850;28;20059;-53
2023/12/01 03:35:01;;;;;;;15.38;11.05;;;15.70;61.00;;;;;;4179570;28;20058;-48
2023/12/01 03:37:43;;;;;;;15.00;10.70;;;15.70;61.20;;;;;;4173426;28;20052;-48
2023/12/01 03:40:26;;;;;;;13.30;9.30;;;15.70;61.30;;;;;;4158775;28;20048;-48
2023/12/01 03:43:08;;;;;;;12.85;9.70;;;15.80;61.00;;;;;;4158882;28;20102;-48
2023/12/01 03:45:49;;;;;;;12.88;9.32;;;15.80;61.00;;;;;;4186972;28;20059;-48
2023/12/01 03:48:30;;;;;;;12.88;9.13;;;15.80;61.00;;;;;;4180570;28;20541;-51
2023/12/01 03:51:11;;;;;;;13.40;9.82;;;15.80;61.90;;;;;;4189047;28;20201;-51
2023/12/01 03:53:52;;;;;;;12.73;9.80;;;15.90;60.80;;;;;;4168144;28;20064;-48
2023/12/01 03:56:36;;;;;;;13.68;9.45;;;15.90;60.90;;;;;;4188479;28;20499;-49
2023/12/01 03:59:19;;;;;;;12.80;9.70;;;15.90;60.90;;;;;;4190175;28;20043;-47
2023/12/01 04:02:01;;;;;;;13.35;9.35;;;16.00;60.70;;;;;;4176066;28;20052;-49
2023/12/01 04:04:43;;;;;;;12.07;8.80;;;16.00;60.50;;;;;;4186992;28;20097;-48
2023/12/01 04:07:24;;;;;;;13.68;10.27;;;16.00;60.50;;;;;;4176836;28;20186;-47
2023/12/01 04:10:10;;;;;;;13.63;9.98;;;15.90;60.30;;;;;;4197157;28;20054;-51
2023/12/01 04:12:51;;;;;;;13.13;9.20;;;16.00;60.30;;;;;;4205624;28;20058;-47
2023/12/01 04:15:34;;;;;;;12.60;9.30;;;15.90;60.50;;;;;;4205676;28;20513;-49
2023/12/01 04:18:15;;;;;;;14.73;9.63;;;15.90;60.70;;;;;;4206782;28;20379;-50
2023/12/01 04:20:57;;;;;;;13.27;9.68;;;15.90;60.60;;;;;;4207008;28;20047;-52
2023/12/01 04:23:38;;;;;;;13.27;9.60;;;15.90;60.50;;;;;;4205152;28;20490;-48
2023/12/01 04:26:19;;;;;;;16.50;10.40;;;15.90;60.60;;;;;;4178331;28;20052;-48
2023/12/01 04:29:00;;;;;;;12.95;9.93;;;16.00;60.60;;;;;;4175801;28;20183;-52
2023/12/01 04:31:42;;;;;;;13.93;10.13;;;16.00;60.30;;;;;;4179946;28;20059;-51
2023/12/01 04:34:30;;;;;;;13.75;10.13;;;16.00;60.20;;;;;;4187021;28;20144;-51
2023/12/01 04:37:11;;;;;;;13.68;9.95;;;16.00;60.20;;;;;;4206405;28;20185;-51
2023/12/01 04:39:53;;;;;;;13.48;9.68;;;16.00;60.30;;;;;;4204831;28;20055;-50
2023/12/01 04:42:33;;;;;;;14.23;9.67;;;16.00;60.50;;;;;;4187969;28;20063;-49
2023/12/01 04:45:16;;;;;;;13.80;9.52;;;16.00;60.30;;;;;;4185438;28;20159;-48
2023/12/01 04:47:59;;;;;;;13.82;10.18;;;16.00;59.90;;;;;;4185264;28;20484;-51
2023/12/01 04:50:47;;;;;;;12.90;9.85;;;16.00;58.60;;;;;;4174229;28;20060;-48
2023/12/01 04:53:28;;;;;;;11.68;8.77;;;15.90;59.10;;;;;;4189794;28;20075;-53
2023/12/01 04:56:10;;;;;;;12.93;9.65;;;15.90;59.70;;;;;;4204241;28;20439;-52
2023/12/01 04:58:51;;;;;;;12.98;9.70;;;15.90;60.00;;;;;;4187157;28;20569;-52
2023/12/01 05:01:35;;;;;;;14.25;9.10;;;15.90;59.90;;;;;;4177337;28;20064;-49
2023/12/01 05:04:17;;;;;;;14.25;9.52;;;15.90;60.00;;;;;;4185375;28;20422;-53
2023/12/01 05:06:58;;;;;;;13.77;9.50;;;15.80;60.20;;;;;;4206108;28;20059;-51
2023/12/01 05:09:41;;;;;;;13.30;9.77;;;15.80;60.30;;;;;;4204127;28;20489;-51
2023/12/01 05:12:22;;;;;;;11.80;10.07;;;15.90;60.20;;;;;;4205529;28;20051;-50
2023/12/01 05:15:04;;;;;;;13.52;9.57;;;15.80;60.40;;;;;;4174197;28;20051;-53
2023/12/01 05:17:45;;;;;;;;;;;15.80;60.50;;;;;;4166917;28;20056;-51
2023/12/01 05:20:28;;;;;;;14.77;10.37;;;15.80;60.90;;;;;;4188648;28;19930;-54
2023/12/01 05:23:10;;;;;;;13.00;10.45;;;15.70;60.50;;;;;;4202161;28;20121;-53
2023/12/01 05:25:51;;;;;;;;;;;15.70;60.50;;;;;;4172987;28;20219;-53
2023/12/01 05:28:33;;;;;;;14.77;9.95;;;15.60;61.00;;;;;;4171340;28;20284;-51
2023/12/01 05:31:14;;;;;;;14.18;10.02;;;15.50;61.20;;;;;;4174167;28;20059;-54
2023/12/01 05:33:55;;;;;;;12.05;10.23;;;15.50;61.10;;;;;;4188457;28;20375;-53
2023/12/01 05:36:43;;;;;;;15.30;10.25;;;15.60;60.90;;;;;;4186928;28;20056;-53
2023/12/01 05:39:24;;;;;;;12.68;9.57;;;15.60;60.90;;;;;;4185853;28;20060;-53
2023/12/01 05:42:05;;;;;;;12.90;10.07;;;15.70;60.90;;;;;;4188854;28;20051;-53
2023/12/01 05:44:47;;;;;;;13.93;10.63;;;15.70;60.60;;;;;;4199517;28;20456;-53
2023/12/01 05:47:27;;;;;;;14.52;10.52;;;15.70;60.50;;;;;;4187115;28;20625;-52
2023/12/01 05:50:13;;;;;;;12.63;9.73;;;15.70;60.80;;;;;;4173242;28;20060;-50
2023/12/01 05:52:56;;;;;;;13.63;10.00;;;15.70;60.90;;;;;;4176214;28;20086;-53
2023/12/01 05:55:37;;;;;;;13.82;9.75;;;15.80;60.60;;;;;;4204612;28;20069;-53
2023/12/01 05:58:19;;;;;;;13.35;10.05;;;15.80;60.40;;;;;;4204558;28;20487;-51
2023/12/01 06:00:59;;;;;;;13.95;10.48;;;15.90;60.30;;;;;;4201497;28;20058;-50
2023/12/01 06:03:41;;;;;;;13.70;9.82;;;15.90;60.20;;;;;;4190047;28;20050;-51
2023/12/01 06:06:22;;;;;;;15.05;10.52;;;15.90;60.20;;;;;;4201012;28;20067;-50
2023/12/01 06:09:04;;;;;;;14.75;10.15;;;15.90;60.10;;;;;;4202078;28;20178;-49
2023/12/01 06:11:45;;;;;;;13.82;10.45;;;15.90;60.00;;;;;;4201416;28;20092;-50
2023/12/01 06:14:26;;;;;;;15.35;11.05;;;15.90;60.10;;;;;;4163417;28;20052;-50
2023/12/01 06:17:07;;;;;;;14.30;10.25;;;15.80;60.90;;;;;;4167480;28;20067;-51
2023/12/01 06:19:48;;;;;;;14.18;10.30;;;15.80;60.10;;;;;;4163419;28;20094;-51
2023/12/01 06:22:29;;;;;;;16.70;11.68;;;15.80;60.10;;;;;;4121575;28;20065;-49
2023/12/01 06:25:12;;;;;;;15.30;10.85;;;15.70;60.00;;;;;;4150203;28;20052;-52
2023/12/01 06:27:56;;;;;;;15.82;10.80;;;15.60;60.10;;;;;;4164743;28;20110;-50
2023/12/01 06:30:37;;;;;;;14.55;10.60;;;15.60;60.40;;;;;;4170623;28;20056;-54
2023/12/01 06:33:18;;;;;;;14.70;10.27;;;15.60;60.60;;;;;;4183916;28;20048;-53
2023/12/01 06:35:59;;;;;;;15.57;11.27;;;15.70;60.60;;;;;;4187134;28;20047;-50
2023/12/01 06:38:40;;;;;;;14.40;10.07;;;15.70;60.30;;;;;;4174633;28;20514;-49
2023/12/01 06:41:23;;;;;;;15.75;11.75;;;15.80;60.30;;;;;;4186800;28;20060;-50
2023/12/01 06:44:04;;;;;;;15.60;10.23;;;15.80;59.50;;;;;;4183677;28;20060;-51
2023/12/01 06:46:45;;;;;;;15.65;10.15;;;15.80;58.30;;;;;;4186098;28;20056;-47
2023/12/01 06:49:25;;;;;;;13.60;10.27;;;15.80;57.80;;;;;;4167014;28;20059;-48
2023/12/01 06:52:08;;;;;;;13.48;9.75;;;15.80;58.10;;;;;;4169043;28;20116;-51
2023/12/01 06:54:49;;;;;;;17.00;11.15;;;15.90;57.30;;;;;;4203442;28;20059;-48
2023/12/01 06:57:31;;;;;;;15.90;10.57;;;15.80;57.10;;;;;;4195161;28;20117;-49
2023/12/01 07:00:28;;;;;;;16.02;10.98;;;15.80;57.20;;;;;;4193886;28;20071;-49
2023/12/01 07:03:11;;;;;;;18.67;10.32;;;15.80;56.90;;;;;;4189395;28;20059;-47
2023/12/01 07:05:52;;;;;;;14.85;9.93;;;15.80;57.00;;;;;;4185531;28;20156;-49
2023/12/01 07:08:33;;;;;;;13.77;9.68;;;15.80;56.80;;;;;;4170512;28;20142;-49
2023/12/01 07:11:16;;;;;;;16.60;11.48;;;15.80;56.60;;;;;;4170204;28;20060;-47
2023/12/01 07:13:59;;;;;;;15.30;10.82;;;15.70;56.10;;;;;;4163143;28;20495;-49
2023/12/01 07:16:42;;;;;;;16.17;10.80;;;15.70;56.20;;;;;;4169287;28;20412;-46
2023/12/01 07:19:22;;;;;;;16.25;9.60;;;15.70;56.40;;;;;;4169641;28;20083;-48
2023/12/01 07:22:04;;;;;;;14.45;9.85;;;15.70;56.90;;;;;;4179411;28;20052;-47
2023/12/01 07:24:45;;;;;;;16.08;10.77;;;15.70;56.10;;;;;;4203671;28;20564;-50
2023/12/01 07:27:26;;;;;;;15.63;10.32;;;15.70;55.90;;;;;;4203353;28;20082;-48
2023/12/01 07:30:09;;;;;;;15.77;10.38;;;15.70;56.30;;;;;;4202507;28;20121;-47
2023/12/01 07:32:51;;;;;;;14.35;9.82;;;15.70;56.60;;;;;;4185886;28;20408;-51
2023/12/01 07:35:32;;;;;;;14.18;9.57;;;15.80;56.80;;;;;;4186450;28;20055;-50
2023/12/01 07:38:15;;;;;;;;;;;15.80;56.20;;;;;;4157438;28;20056;-52
2023/12/01 07:40:56;;;;;;;15.35;10.45;;;15.70;56.20;;;;;;4163045;28;19939;-52
2023/12/01 07:43:37;;;;;;;16.48;10.95;;;15.60;55.90;;;;;;4201780;28;20123;-49
2023/12/01 07:46:21;;;;;;;15.48;10.70;;;15.60;56.30;;;;;;4203663;28;20181;-50
2023/12/01 07:49:03;;;;;;;17.92;11.40;;;15.50;56.10;;;;;;4203346;28;20047;-52
2023/12/01 07:51:48;;;;;;;17.02;10.73;;;15.50;56.10;;;;;;4200710;28;20051;-50
2023/12/01 07:54:29;;;;;;;15.98;10.63;;;15.40;56.20;;;;;;4176193;28;20506;-49
2023/12/01 07:57:10;;;;;;;14.88;10.15;;;15.40;56.40;;;;;;4171238;28;20076;-48
2023/12/01 07:59:51;;;;;;;15.35;11.60;;;15.40;56.00;;;;;;4187230;28;20071;-53
2023/12/01 08:02:36;;;;;;;16.17;11.00;;;15.40;55.90;;;;;;4193353;28;20055;-49
2023/12/01 08:05:17;;;;;;;14.05;10.60;;;15.40;55.40;;;;;;4188321;28;20158;-50
2023/12/01 08:07:58;;;;;;;;;;;15.30;55.30;;;;;;4173206;28;20091;-52
2023/12/01 08:10:39;;;;;;;18.30;11.48;;;15.30;55.70;;;;;;4188577;28;19931;-50
2023/12/01 08:13:24;;;;;;;16.67;11.68;;;15.30;55.10;;;;;;4189484;28;20052;-49
2023/12/01 08:16:06;;;;;;;16.88;12.20;;;15.30;54.60;;;;;;4184100;28;20060;-48
2023/12/01 08:18:48;;;;;;;17.00;11.35;;;15.30;54.50;;;;;;4157955;28;20056;-48
2023/12/01 08:21:31;;;;;;;15.32;11.10;;;15.20;55.30;;;;;;4180477;28;20116;-50
2023/12/01 08:24:12;;;;;;;15.45;10.82;;;15.20;54.80;;;;;;4164599;28;20487;-49
2023/12/01 08:26:53;;;;;;;15.27;10.73;;;15.30;54.50;;;;;;4187708;28;20059;-48
2023/12/01 08:29:34;;;;;;;16.05;11.98;;;15.30;54.40;;;;;;4188706;28;20070;-52
2023/12/01 08:32:15;;;;;;;17.30;12.52;;;15.30;54.70;;;;;;4187791;28;20155;-50
2023/12/01 08:34:57;;;;;;;16.33;11.43;;;15.30;55.00;;;;;;4184489;28;20255;-51
2023/12/01 08:37:38;;;;;;;16.33;12.05;;;15.30;54.70;;;;;;4179919;28;20182;-52
2023/12/01 08:40:20;;;;;;;17.50;11.85;;;15.30;54.60;;;;;;4188457;28;20067;-51
2023/12/01 08:43:02;;;;;;;15.40;11.18;;;15.20;54.70;;;;;;4184257;28;20141;-52
2023/12/01 08:45:43;;;;;;;16.45;11.30;;;15.20;54.80;;;;;;4178224;28;20078;-49
2023/12/01 08:48:24;;;;;;;17.02;11.57;;;15.10;55.20;;;;;;4184507;28;20069;-52
2023/12/01 08:51:06;;;;;;;16.47;12.20;;;15.00;55.40;;;;;;4182480;28;20138;-51
2023/12/01 08:53:47;;;;;;;15.60;11.40;;;15.00;55.90;;;;;;4187182;28;20047;-52
2023/12/01 08:56:32;;;;;;;17.48;12.00;;;15.00;55.90;;;;;;4188458;28;20071;-53
2023/12/01 08:59:13;;;;;;;15.88;11.65;;;15.00;55.60;;;;;;4183169;28;20517;-50
2023/12/01 09:01:54;;;;;;;16.65;12.05;;;15.00;55.60;;;;;;4187698;28;20059;-50
2023/12/01 09:04:34;;;;;;;16.48;11.82;;;14.90;56.00;;;;;;4171511;28;20051;-49
2023/12/01 09:07:17;;;;;;;16.42;12.20;;;14.80;55.90;;;;;;4180471;28;20455;-50
2023/12/01 09:09:59;;;;;;;16.27;12.27;;;14.70;55.90;;;;;;4188059;28;20054;-53
2023/12/01 09:12:40;;;;;;;18.50;12.18;;;14.70;56.70;;;;;;4186223;28;20044;-50
2023/12/01 09:15:21;;;;;;;19.83;12.85;;;14.80;55.70;;;;;;4186087;28;20078;-49
2023/12/01 09:18:02;;;;;;;17.25;12.15;;;14.80;56.10;;;;;;4177452;28;20063;-49
2023/12/01 09:20:44;;;;;;;20.02;13.27;;;14.80;56.20;;;;;;4171353;28;20556;-53
2023/12/01 09:23:26;;;;;;;15.75;11.05;;;14.80;55.90;;;;;;4186363;28;20097;-50
2023/12/01 09:26:07;;;;;;;17.95;12.48;;;14.80;55.90;;;;;;4175360;28;20060;-51
2023/12/01 09:28:50;;;;;;;18.73;12.23;;;14.90;55.70;;;;;;4200932;28;20410;-48
2023/12/01 09:31:32;;;;;;;19.13;12.57;;;14.90;55.50;;;;;;4204441;28;20411;-50
2023/12/01 09:34:13;;;;;;;15.45;11.05;;;14.90;55.60;;;;;;4185155;28;20205;-51
2023/12/01 09:36:54;;;;;;;17.23;11.45;;;14.90;55.80;;;;;;4187303;28;20063;-52
2023/12/01 09:39:37;;;;;;;16.75;11.68;;;14.90;55.90;;;;;;4157347;28;20056;-51
2023/12/01 09:42:23;;;;;;;16.13;11.10;;;14.80;56.10;;;;;;4168209;28;20044;-51
2023/12/01 09:45:05;;;;;;;15.70;10.60;;;14.80;56.50;;;;;;4155020;28;20059;-52
2023/12/01 09:47:52;;;;;;;15.75;10.98;;;14.70;56.30;;;;;;4192068;28;20051;-52
2023/12/01 09:50:33;;;;;;;16.58;10.90;;;14.50;56.40;;;;;;4200264;28;20059;-52
2023/12/01 09:53:16;;;;;;;16.70;12.18;;;14.50;56.50;;;;;;4188401;28;20077;-52
2023/12/01 09:55:59;;;;;;;15.25;11.10;;;14.40;57.10;;;;;;4188068;28;20498;-49
2023/12/01 09:58:40;;;;;;;17.48;11.95;;;14.30;55.30;;;;;;4187723;28;20055;-49
2023/12/01 10:01:24;;;;;;;15.90;11.13;;;14.20;55.40;;;;;;4190401;28;20517;-48
2023/12/01 10:04:05;;;;;;;16.65;11.52;;;14.20;56.10;;;;;;4174864;28;20562;-50
2023/12/01 10:06:46;;;;;;;16.08;10.60;;;14.20;56.70;;;;;;4194323;28;20063;-52
2023/12/01 10:09:32;;;;;;;16.92;11.85;;;14.30;56.20;;;;;;4188898;28;20055;-49
2023/12/01 10:12:15;;;;;;;17.33;11.45;;;14.40;56.00;;;;;;4185053;28;20863;-49
2023/12/01 10:14:57;;;;;;;17.27;11.55;;;14.40;55.70;;;;;;4185867;28;20056;-52
2023/12/01 10:17:38;;;;;;;16.42;12.20;;;14.50;55.50;;;;;;4184072;28;20510;-51
2023/12/01 10:20:21;;;;;;;17.08;11.35;;;14.60;55.10;;;;;;4180647;28;20182;-48
2023/12/01 10:23:02;;;;;;;18.08;12.52;;;14.70;55.40;;;;;;4171779;28;20048;-50
2023/12/01 10:25:48;;;;;;;17.52;12.23;;;14.70;54.80;;;;;;4170604;28;20106;-47
2023/12/01 10:28:39;;;;;;;18.05;12.18;;;14.80;54.20;;;;;;4161667;28;20099;-51
2023/12/01 10:31:21;;;;;;;20.65;13.35;;;14.70;53.70;;;;;;4172751;28;20523;-49
2023/12/01 10:34:02;;;;;;;18.43;12.87;;;14.80;53.70;;;;;;4184378;28;20068;-49
2023/12/01 10:36:43;;;;;;;18.23;12.50;;;14.80;54.00;;;;;;4176111;28;20066;-53
2023/12/01 10:39:27;;;;;;;18.55;12.95;;;14.90;54.40;;;;;;4186712;28;20067;-53
2023/12/01 10:42:09;;;;;;;19.85;13.85;;;14.80;55.90;;;;;;4187393;28;20060;-54
2023/12/01 10:44:53;;;;;;;18.20;12.90;;;14.80;57.00;;;;;;4195654;28;20086;-52
2023/12/01 10:47:34;;;;;;;17.95;12.25;;;14.90;57.70;;;;;;4204109;28;20493;-53
2023/12/01 10:50:17;;;;;;;21.70;13.57;;;14.90;58.00;;;;;;4171728;28;20451;-55
2023/12/01 10:53:01;;;;;;;18.13;12.68;;;15.00;58.30;;;;;;4187095;28;20059;-72
2023/12/01 10:55:45;;;;;;;18.65;12.98;;;15.00;58.70;;;;;;4172872;28;20094;-53
2023/12/01 10:58:26;;;;;;;17.00;12.13;;;15.10;59.00;;;;;;4187145;28;20453;-52
2023/12/01 11:01:09;;;;;;;;;;;15.20;58.60;;;;;;4187384;28;20060;-52
2023/12/01 11:03:53;;;;;;;16.45;12.20;;;15.20;58.60;;;;;;4185121;28;20010;-49
2023/12/01 11:06:45;;;;;;;16.95;11.90;;;15.30;59.50;;;;;;4186767;28;20055;-52
2023/12/01 11:09:36;;;;;;;18.67;12.43;;;15.30;58.70;;;;;;4185999;28;20059;-49
2023/12/01 11:12:27;;;;;;;16.50;11.25;;;15.30;58.90;;;;;;4182796;28;20177;-52
2023/12/01 11:15:16;;;;;;;20.77;12.25;;;15.30;60.30;;;;;;4185926;28;20067;-49
2023/12/01 11:17:58;;;;;;;18.13;12.30;;;15.30;62.30;;;;;;4186619;28;20755;-54
2023/12/01 11:20:44;;;;;;;17.63;12.45;;;15.20;62.10;;;;;;4186913;28;20055;-53
2023/12/01 11:23:30;;;;;;;19.98;12.57;;;15.20;62.30;;;;;;4184922;28;20498;-49
2023/12/01 11:26:12;;;;;;;16.58;11.40;;;15.20;62.80;;;;;;4184126;28;20442;-50
2023/12/01 11:29:09;;;;;;;18.73;12.38;;;15.10;62.90;;;;;;4175758;28;20163;-51
2023/12/01 11:31:52;;;;;;;17.45;11.18;;;15.10;62.70;;;;;;4169215;28;20052;-54
2023/12/01 11:34:34;;;;;;;17.85;11.77;;;15.10;62.50;;;;;;4182756;28;20071;-52
2023/12/01 11:37:15;;;;;;;17.50;10.98;;;15.20;61.70;;;;;;4187144;28;20055;-50
2023/12/01 11:40:22;;;;;;;16.83;11.38;;;15.20;61.70;;;;;;4188884;28;20087;-49
2023/12/01 11:43:03;;;;;;;15.85;11.38;;;15.20;61.60;;;;;;4177442;28;20121;-52
2023/12/01 11:45:50;;;;;;;16.75;11.02;;;15.20;61.10;;;;;;4176218;28;20127;-51
2023/12/01 11:48:33;;;;;;;17.50;11.45;;;15.30;60.60;;;;;;4187166;28;20059;-52
2023/12/01 11:51:15;;;;;;;16.55;11.30;;;15.20;59.90;;;;;;4183401;28;20059;-51
2023/12/01 11:53:58;;;;;;;16.40;11.52;;;15.10;60.40;;;;;;4186839;28;20183;-49
2023/12/01 11:56:39;;;;;;;15.68;11.35;;;15.10;60.60;;;;;;4185831;28;20048;-50
2023/12/01 11:59:21;;;;;;;18.10;12.07;;;15.00;61.60;;;;;;4186347;28;20130;-50
2023/12/01 12:02:02;;;;;;;16.88;10.90;;;15.00;61.90;;;;;;4187170;28;20093;-53
2023/12/01 12:04:46;;;;;;;19.45;11.13;;;14.90;61.60;;;;;;4189859;28;20105;-52
2023/12/01 12:07:29;;;;;;;16.92;11.88;;;14.90;61.10;;;;;;4181762;28;20060;-53
2023/12/01 12:10:13;;;;;;;18.25;11.60;;;14.80;61.30;;;;;;4180147;28;20067;-52
2023/12/01 12:12:54;;;;;;;18.48;12.02;;;14.80;61.50;;;;;;4188390;28;20605;-53
2023/12/01 12:15:38;;;;;;;18.25;11.40;;;14.80;61.40;;;;;;4177418;28;20191;-52
2023/12/01 12:18:24;;;;;;;17.70;11.52;;;14.70;61.70;;;;;;4190120;28;20097;-50
2023/12/01 12:21:06;;;;;;;17.33;11.52;;;14.60;61.80;;;;;;4186853;28;20055;-49
2023/12/01 12:23:49;;;;;;;17.48;11.60;;;14.60;62.30;;;;;;4187961;28;20060;-52
2023/12/01 12:26:31;;;;;;;17.05;11.65;;;14.60;62.80;;;;;;4187148;28;20055;-51
2023/12/01 12:29:12;;;;;;;18.67;11.90;;;14.60;63.10;;;;;;4184863;28;20055;-53
2023/12/01 12:31:53;;;;;;;16.02;10.65;;;14.60;63.20;;;;;;4187051;28;20051;-53
2023/12/01 12:34:35;;;;;;;18.02;11.45;;;14.60;63.60;;;;;;4185341;28;20055;-52
2023/12/01 12:37:17;;;;;;;17.73;11.77;;;14.70;63.60;;;;;;4188854;28;20055;-51
2023/12/01 12:40:00;;;;;;;20.85;12.77;;;14.70;63.70;;;;;;4187635;28;20538;-53
2023/12/01 12:42:53;;;;;;;19.83;12.20;;;14.70;63.60;;;;;;4172636;28;20060;-50
2023/12/01 12:45:34;;;;;;;19.55;12.90;;;14.70;64.10;;;;;;4161666;28;20070;-50
2023/12/01 12:48:15;;;;;;;19.90;12.10;;;14.60;63.10;;;;;;4175364;28;20060;-47
2023/12/01 12:50:56;;;;;;;19.73;12.43;;;14.50;63.50;;;;;;4159928;28;20063;-52
2023/12/01 12:53:37;;;;;;;16.50;11.00;;;14.50;65.00;;;;;;4163647;28;20064;-53
2023/12/01 12:56:21;;;;;;;17.05;11.60;;;14.50;65.70;;;;;;4187521;28;20051;-53
2023/12/01 12:59:04;;;;;;;18.73;10.73;;;14.60;65.90;;;;;;4185038;28;20047;-53
2023/12/01 13:01:45;;;;;;;16.38;11.02;;;14.70;65.70;;;;;;4188356;28;20051;-54
2023/12/01 13:04:27;;;;;;;16.52;11.05;;;14.80;65.60;;;;;;4188623;28;20162;-52
2023/12/01 13:07:08;;;;;;;16.83;11.27;;;14.90;65.30;;;;;;4180280;28;20517;-53
2023/12/01 13:09:49;;;;;;;17.92;11.43;;;14.90;65.40;;;;;;4188477;28;20814;-54
2023/12/01 13:12:31;;;;;;;16.52;10.38;;;15.00;65.70;;;;;;4171903;28;20074;-51
2023/12/01 13:15:12;;;;;;;14.20;10.10;;;15.00;65.70;;;;;;4171763;28;20048;-54
2023/12/01 13:17:53;;;;;;;20.08;11.25;;;15.00;65.60;;;;;;4172429;28;20044;-50
2023/12/01 13:20:34;;;;;;;15.38;9.90;;;15.00;65.80;;;;;;4185741;28;20046;-53
2023/12/01 13:23:17;;;;;;;16.00;10.43;;;14.90;65.80;;;;;;4184907;28;20177;-54
2023/12/01 13:25:58;;;;;;;15.80;10.95;;;14.80;66.00;;;;;;4185349;28;20071;-53
2023/12/01 13:28:40;;;;;;;15.57;10.20;;;14.70;66.60;;;;;;4184613;28;20060;-53
2023/12/01 13:31:21;;;;;;;14.73;10.55;;;14.70;67.10;;;;;;4187416;28;20572;-54
2023/12/01 13:34:02;;;;;;;19.30;11.27;;;14.70;67.30;;;;;;4185962;28;20063;-51
2023/12/01 13:36:44;;;;;;;16.42;11.18;;;14.70;67.10;;;;;;4179614;28;20067;-54
2023/12/01 13:39:27;;;;;;;16.20;10.70;;;14.70;67.40;;;;;;4187763;28;20114;-50
2023/12/01 13:42:07;;;;;;;15.23;10.13;;;14.70;67.70;;;;;;4182833;28;20060;-53
2023/12/01 13:44:51;;;;;;;12.85;9.82;;;14.80;67.90;;;;;;4171656;28;20194;-52
2023/12/01 13:47:33;;;;;;;15.13;10.88;;;14.90;67.50;;;;;;4187048;28;20047;-48